Flight Track Log - Related Links

Times and Time Zones

All times are in EDT time to prevent confusion due to time zone crossing. See the N779NC flight status page for this flight to view local times or setup timezone preferences in your user account.

Time Position Orientation Groundspeed Altitude Reporting Facility
EDT Latitude Longitude Course Direction KTS MPH feet Rate Location/Type
Thu 07:52:00 PM 40.1361 -80.1602 214° Southwest  Level FlightAware Approximate
Thu 07:52:33 PM 40.2775 -80.3192 212° Southwest 335 386 8,200  Level Cleveland Center
Thu 07:53:00 PM 40.0486 -80.2367 214° Southwest  Level FlightAware Approximate
Thu 07:53:33 PM 40.1939 -80.3003 170° South 329 379 10,500  Level Cleveland Center
Thu 07:54:00 PM 39.9643 -80.3190 217° Southwest  Level FlightAware Approximate
Thu 07:54:33 PM 40.0981 -80.2819 172° South 336 387 11,500  Level Cleveland Center
Thu 07:55:00 PM 39.8783 -80.3980 215° Southwest  Level FlightAware Approximate
Thu 07:55:33 PM 40.0000 -80.3094 192° South 345 397 13,700  Level Cleveland Center
Thu 07:56:00 PM 39.7917 -80.4759 215° Southwest  Level FlightAware Approximate
Thu 07:56:33 PM 39.9086 -80.3639 205° Southwest 351 404 15,400  Level Cleveland Center
Thu 07:57:00 PM 39.7117 -80.5607 212° Southwest  Level FlightAware Approximate
Thu 07:57:33 PM 39.8086 -80.3967 194° South 368 423 17,500  Level Cleveland Center
Thu 07:58:33 PM 39.7044 -80.4211 190° South 374 430 19,600 1,461 Climbing Cleveland Center
Thu 08:00:05 PM 39.5250 -80.4550 188° South 398 458 21,200 1,130 Climbing Indianapolis Center
Thu 08:01:07 PM 39.4139 -80.4744 188° South 400 460 22,500 1,210 Climbing Indianapolis Center
Thu 08:02:09 PM 39.3019 -80.4931 187° South 402 463 23,700 1,171 Climbing Indianapolis Center
Thu 08:03:10 PM 39.1947 -80.5311 195° South 401 461 24,900 1,073 Climbing Indianapolis Center
Thu 08:04:12 PM 39.0906 -80.5717 197° South 390 449 25,900 823 Climbing Indianapolis Center
Thu 08:05:14 PM 38.9844 -80.6153 198° South 395 455 26,600 677 Climbing Indianapolis Center
Thu 08:06:16 PM 38.8803 -80.6792 206° Southwest 412 474 27,300 629 Climbing Indianapolis Center
Thu 08:07:18 PM 38.7758 -80.7464 207° Southwest 418 481 27,900 683 Climbing Indianapolis Center
Thu 08:08:19 PM 38.6439 -80.8292 206° Southwest 433 498 28,700 780 Climbing Indianapolis Center
Thu 08:09:21 PM 38.5306 -80.9008 206° Southwest 447 514 29,500 1,016 Climbing Indianapolis Center
Thu 08:10:23 PM 38.4181 -80.9739 207° Southwest 450 518 30,800 1,113 Climbing Indianapolis Center
Thu 08:11:25 PM 38.3056 -81.0444 206° Southwest 447 514 31,800 581 Climbing Indianapolis Center
Thu 08:12:27 PM 38.1928 -81.1139 206° Southwest 447 514 32,000 97 Climbing Indianapolis Center
Thu 08:13:29 PM 38.0781 -81.1831 205° Southwest 453 521 32,000  Level Indianapolis Center
Thu 08:14:30 PM 37.9617 -81.2544 206° Southwest 460 529 32,000  Level Indianapolis Center
Thu 08:15:32 PM 37.8456 -81.3247 206° Southwest 461 531 32,000  Level Indianapolis Center
Thu 08:16:34 PM 37.7183 -81.4047 206° Southwest 464 534 32,000  Level Indianapolis Center
Thu 08:17:36 PM 37.6050 -81.4750 206° Southwest 466 536 32,000  Level Indianapolis Center
Thu 08:18:38 PM 37.4664 -81.5633 207° Southwest 465 535 32,000  Level Indianapolis Center
Thu 08:19:40 PM 37.3494 -81.6381 207° Southwest 467 537 32,000  Level Indianapolis Center
Thu 08:20:41 PM 37.2322 -81.7122 207° Southwest 470 541 32,000  Level Indianapolis Center
Thu 08:21:43 PM 37.1144 -81.7850 206° Southwest 469 540 32,000  Level Indianapolis Center
Thu 08:22:45 PM 36.9944 -81.8553 205° Southwest 471 542 32,000 -387 Level Indianapolis Center
Thu 08:23:47 PM 36.8692 -81.9167 201° Southwest 477 549 31,200 -1,111 Descending Indianapolis Center
Thu 08:24:33 PM 36.7625 -81.9761 204° Southwest 486 559 30,000 -679 Descending Atlanta Center
Thu 08:25:33 PM 36.6469 -82.0542 208° Southwest 480 552 30,000  Level Atlanta Center
Thu 08:26:33 PM 36.5358 -82.1344 210° Southwest 474 545 30,000  Level Atlanta Center
Thu 08:27:33 PM 36.4244 -82.2275 214° Southwest 474 545 30,000  Level Atlanta Center
Thu 08:28:33 PM 36.3111 -82.3125 211° Southwest 479 551 30,000  Level Atlanta Center
Thu 08:29:33 PM 36.1867 -82.3742 202° Southwest 479 551 30,000  Level Atlanta Center
Thu 08:30:33 PM 36.0625 -82.4358 202° Southwest 479 551 30,000 -450 Level Atlanta Center
Thu 08:31:33 PM 35.9442 -82.4972 203° Southwest 479 551 29,100 -1,300 Descending Atlanta Center
Thu 08:32:33 PM 35.8219 -82.5636 204° Southwest 474 545 27,400 -1,500 Descending Atlanta Center
Thu 08:33:33 PM 35.7061 -82.6372 207° Southwest 479 551 26,100 -700 Descending Atlanta Center
Thu 08:34:33 PM 35.6067 -82.7003 207° Southwest 472 543 26,000 -50 Descending Atlanta Center
Thu 08:35:33 PM 35.4969 -82.7811 211° Southwest 460 529 26,000 -300 Level Atlanta Center
Thu 08:36:33 PM 35.3956 -82.8719 216° Southwest 455 524 25,400 -1,000 Descending Atlanta Center
Thu 08:37:33 PM 35.2836 -82.9600 213° Southwest 474 545 24,000 -700 Descending Atlanta Center
Thu 08:38:33 PM 35.1675 -83.0225 204° Southwest 469 540 24,000  Level Atlanta Center
Thu 08:39:33 PM 35.0447 -83.0822 202° Southwest 468 539 24,000 -800 Level Atlanta Center
Thu 08:40:33 PM 34.9117 -83.1344 198° South 485 558 22,400 -1,400 Descending Atlanta Center
Thu 08:41:33 PM 34.7786 -83.2017 203° Southwest 485 558 21,200 -850 Descending Atlanta Center
Thu 08:43:00 PM 34.6514 -83.3127 217° Southwest  Level FlightAware Approximate
Thu 08:44:33 PM 34.4481 -83.4142 217° Southwest 451 519 19,000  Level Atlanta Center
Thu 08:45:33 PM 34.3525 -83.5156 221° Southwest 451 519 19,000 -477 Level Atlanta Center
Thu 08:47:04 PM 34.2167 -83.6667 223° Southwest 437 503 17,800 -1,033 Descending Atlanta TRACON
Thu 08:48:04 PM 34.1333 -83.7667 225° Southwest 424 488 16,400 -1,200 Descending Atlanta TRACON
Thu 08:48:59 PM 34.0667 -83.8667 231° Southwest 397 457 15,500 -1,146 Descending Atlanta TRACON
Thu 08:49:33 PM 34.0322 -83.9233 234° Southwest 397 457 14,700 -1,404 Descending Atlanta Center
Thu 08:50:33 PM 33.9528 -83.9836 212° Southwest 366 421 13,300 -1,350 Descending Atlanta Center
Thu 08:51:33 PM 33.8694 -83.9836 180° South 332 382 12,000 -1,400 Descending Atlanta Center
Thu 08:52:33 PM 33.7775 -83.9764 176° South 327 376 10,500 -1,100 Descending Atlanta Center
Thu 08:53:33 PM 33.7003 -83.9714 177° South 308 354 9,800 -1,100 Descending Atlanta Center
Thu 08:54:33 PM 33.6397 -83.9864 192° South 209 241 8,300 -1,600 Descending Atlanta Center
Thu 08:55:33 PM 33.6314 -84.0489 261° West 181 208 6,600 -1,250 Descending Atlanta Center
Thu 08:56:33 PM 33.6294 -84.1161 268° West 181 208 5,800 -945 Descending Atlanta Center
Thu 08:57:59 PM 33.6333 -84.2000 273° West 185 213 4,300 -1,047 Descending Atlanta TRACON

Login

Don't have an account? Register now (free) for customized features, flight alerts, and more!